Time;durP1;ratioP1;P1;durP2;ratioP2;P2;SDS_P1;SDS_P2;PMS_P1;PMS_P2;Temp;Humidity;BMP_temperature;BMP_pressure;BME280_temperature;BME280_humidity;BME280_pressure;Samples;Min_cycle;Max_cycle;Signal;HPM_P1;HPM_P2
2023/05/17 00:01:39;;;;;;;3.40;3.10;;;12.40;62.40;;;;;;5010252;28;20108;-46
2023/05/17 00:04:08;;;;;;;8.65;3.90;;;12.30;62.50;;;;;;5010299;28;20144;-46
2023/05/17 00:06:35;;;;;;;5.20;2.90;;;12.30;62.80;;;;;;5011812;28;20053;-50
2023/05/17 00:09:05;;;;;;;3.67;2.90;;;12.30;62.80;;;;;;5016908;28;20103;-47
2023/05/17 00:11:34;;;;;;;6.63;3.45;;;12.30;62.70;;;;;;5010072;28;20038;-49
2023/05/17 00:14:01;;;;;;;5.35;3.25;;;12.20;62.60;;;;;;5008270;28;20468;-46
2023/05/17 00:16:31;;;;;;;5.78;3.38;;;12.20;62.70;;;;;;5009679;28;20074;-50
2023/05/17 00:18:58;;;;;;;6.75;3.42;;;12.20;62.80;;;;;;5009140;28;20041;-49
2023/05/17 00:21:25;;;;;;;5.25;3.92;;;12.20;62.90;;;;;;5009647;28;20045;-48
2023/05/17 00:23:53;;;;;;;2.88;2.67;;;12.20;62.80;;;;;;5007723;28;20042;-50
2023/05/17 00:26:27;;;;;;;3.03;2.60;;;12.10;62.60;;;;;;5008792;28;20137;-50
2023/05/17 00:29:01;;;;;;;3.90;3.20;;;12.20;62.30;;;;;;5008796;28;20034;-50
2023/05/17 00:31:27;;;;;;;4.30;3.17;;;12.10;62.00;;;;;;4992163;28;20129;-47
2023/05/17 00:33:56;;;;;;;4.15;2.88;;;12.10;62.10;;;;;;4986110;28;20073;-50
2023/05/17 00:36:26;;;;;;;3.80;3.00;;;12.00;62.50;;;;;;5009000;28;20053;-49
2023/05/17 00:38:54;;;;;;;5.00;3.28;;;12.00;62.30;;;;;;5008561;28;20042;-49
2023/05/17 00:41:23;;;;;;;4.47;2.83;;;11.90;62.60;;;;;;5009185;28;20232;-47
2023/05/17 00:43:53;;;;;;;5.53;3.22;;;11.90;62.60;;;;;;5009198;28;20474;-47
2023/05/17 00:46:22;;;;;;;6.00;3.65;;;11.90;62.90;;;;;;5008828;28;20046;-49
2023/05/17 00:48:49;;;;;;;6.43;3.53;;;11.90;63.10;;;;;;4990172;28;20046;-48
2023/05/17 00:51:18;;;;;;;5.47;3.30;;;11.90;62.90;;;;;;5007357;28;20045;-49
2023/05/17 00:53:47;;;;;;;5.22;3.53;;;11.80;63.40;;;;;;5008333;28;20100;-47
2023/05/17 00:56:14;;;;;;;7.28;3.55;;;11.80;63.40;;;;;;4989058;28;20088;-48
2023/05/17 00:58:41;;;;;;;5.18;3.72;;;11.80;63.50;;;;;;4994863;28;20459;-47
2023/05/17 01:01:07;;;;;;;5.93;3.88;;;11.80;63.70;;;;;;4995652;28;20070;-47
2023/05/17 01:03:38;;;;;;;5.93;3.70;;;11.80;63.70;;;;;;5012068;28;20073;-50
2023/05/17 01:06:07;;;;;;;8.20;3.65;;;11.80;64.00;;;;;;5012224;28;20050;-47
2023/05/17 01:08:43;;;;;;;5.43;3.53;;;11.70;63.80;;;;;;5012252;28;20056;-47
2023/05/17 01:11:28;;;;;;;3.58;2.88;;;11.70;63.70;;;;;;5012204;28;20046;-50
2023/05/17 01:14:01;;;;;;;5.05;2.92;;;11.70;63.80;;;;;;5011261;28;20069;-48
2023/05/17 01:16:51;;;;;;;3.50;2.75;;;11.70;63.30;;;;;;4990921;28;20467;-46
2023/05/17 01:19:48;;;;;;;5.93;3.00;;;11.70;63.60;;;;;;5013454;28;20068;-48
2023/05/17 01:22:35;;;;;;;4.28;3.20;;;11.60;62.80;;;;;;5009700;28;20502;-46
2023/05/17 01:25:19;;;;;;;4.07;2.85;;;11.60;62.80;;;;;;4993388;28;20141;-45
2023/05/17 01:27:50;;;;;;;3.75;2.60;;;11.60;62.20;;;;;;5018551;28;20041;-48
2023/05/17 01:30:19;;;;;;;6.07;3.15;;;11.50;62.10;;;;;;5000219;28;20056;-46
2023/05/17 01:32:49;;;;;;;3.72;2.63;;;11.50;62.00;;;;;;5004287;28;20141;-49
2023/05/17 01:35:17;;;;;;;3.70;2.88;;;11.40;62.10;;;;;;5011502;28;20108;-47
2023/05/17 01:37:44;;;;;;;4.75;3.05;;;11.40;62.00;;;;;;5011690;28;20148;-46
2023/05/17 01:40:12;;;;;;;8.18;3.05;;;11.30;62.10;;;;;;4999042;28;20048;-48
2023/05/17 01:42:41;;;;;;;4.40;2.50;;;11.30;61.90;;;;;;5014446;28;20076;-46
2023/05/17 01:45:23;;;;;;;4.28;2.70;;;11.30;62.00;;;;;;4993557;28;20095;-50
2023/05/17 01:48:01;;;;;;;2.92;2.47;;;11.30;62.30;;;;;;4993827;28;20058;-49
2023/05/17 01:50:31;;;;;;;3.65;2.75;;;11.20;61.80;;;;;;5014461;28;20037;-47
2023/05/17 01:53:09;;;;;;;4.72;2.65;;;11.20;61.70;;;;;;5010953;28;20037;-46
2023/05/17 01:55:49;;;;;;;5.65;2.53;;;11.10;62.00;;;;;;5010460;28;20116;-48
2023/05/17 01:58:25;;;;;;;10.30;3.90;;;11.00;61.60;;;;;;5011918;28;20096;-50
2023/05/17 02:00:56;;;;;;;8.63;4.18;;;11.00;62.60;;;;;;4976666;28;20049;-48
2023/05/17 02:03:26;;;;;;;10.40;3.70;;;11.00;63.60;;;;;;5011612;28;20099;-46
2023/05/17 02:05:52;;;;;;;8.80;4.18;;;10.90;63.60;;;;;;5011351;28;20113;-46
2023/05/17 02:08:21;;;;;;;6.20;3.67;;;10.90;64.00;;;;;;4993984;28;20459;-50
2023/05/17 02:10:50;;;;;;;9.18;4.47;;;11.00;64.30;;;;;;4991716;28;20096;-46
2023/05/17 02:13:20;;;;;;;7.20;3.80;;;11.00;64.50;;;;;;4993637;28;20046;-48
2023/05/17 02:15:51;;;;;;;5.72;4.03;;;11.00;64.40;;;;;;5011325;28;20136;-47
2023/05/17 02:18:20;;;;;;;12.07;4.70;;;11.00;64.70;;;;;;4993262;28;20066;-47
2023/05/17 02:20:47;;;;;;;8.48;4.57;;;11.00;64.40;;;;;;5010617;28;20065;-47
2023/05/17 02:23:20;;;;;;;6.35;4.28;;;10.90;64.70;;;;;;5011362;28;20038;-48
2023/05/17 02:25:47;;;;;;;9.57;3.95;;;11.00;64.70;;;;;;4990382;28;20501;-47
2023/05/17 02:28:16;;;;;;;6.82;4.97;;;11.00;64.40;;;;;;5010845;28;20038;-46
2023/05/17 02:30:45;;;;;;;5.30;4.07;;;11.00;64.50;;;;;;5011185;28;20096;-49
2023/05/17 02:33:12;;;;;;;7.80;4.20;;;11.00;64.20;;;;;;5010468;28;20030;-49
2023/05/17 02:35:41;;;;;;;8.02;4.00;;;11.00;64.00;;;;;;5010281;28;20034;-48
2023/05/17 02:38:10;;;;;;;7.55;4.35;;;11.00;63.70;;;;;;4996671;28;20042;-47
2023/05/17 02:40:39;;;;;;;6.20;4.38;;;10.90;63.50;;;;;;5004442;28;20041;-49
2023/05/17 02:43:06;;;;;;;9.05;4.95;;;10.90;63.60;;;;;;5004765;28;20041;-49
2023/05/17 02:45:35;;;;;;;6.32;4.78;;;10.90;64.20;;;;;;5012005;28;20060;-49
2023/05/17 02:48:01;;;;;;;6.32;4.60;;;10.90;64.80;;;;;;5011011;28;20480;-45
2023/05/17 02:50:28;;;;;;;7.30;4.03;;;10.90;64.40;;;;;;4995710;28;20452;-50
2023/05/17 02:52:56;;;;;;;6.20;4.32;;;10.90;64.10;;;;;;5006365;28;20046;-48
2023/05/17 02:55:22;;;;;;;7.20;4.35;;;10.90;64.00;;;;;;5012395;28;20052;-49
2023/05/17 02:57:49;;;;;;;7.03;4.18;;;10.80;64.00;;;;;;5006932;28;20100;-49
2023/05/17 03:00:17;;;;;;;7.57;4.00;;;10.80;64.10;;;;;;4992789;28;20088;-49
2023/05/17 03:02:43;;;;;;;7.78;5.05;;;10.80;65.00;;;;;;4992550;28;20053;-50
2023/05/17 03:05:10;;;;;;;9.45;4.65;;;10.80;64.50;;;;;;4995846;28;20406;-47
2023/05/17 03:07:41;;;;;;;10.75;5.07;;;10.80;65.00;;;;;;5004457;28;20053;-46
2023/05/17 03:10:08;;;;;;;10.82;5.78;;;10.80;65.40;;;;;;5000765;28;20046;-46
2023/05/17 03:12:40;;;;;;;7.20;4.47;;;10.80;65.60;;;;;;4988263;28;20517;-50
2023/05/17 03:15:07;;;;;;;6.47;4.93;;;10.80;65.30;;;;;;4992258;28;20042;-49
2023/05/17 03:17:35;;;;;;;13.85;5.95;;;10.80;65.50;;;;;;4992443;28;20041;-46
2023/05/17 03:20:06;;;;;;;9.45;5.30;;;10.80;65.90;;;;;;4986547;28;20053;-49
2023/05/17 03:22:34;;;;;;;9.43;5.22;;;10.80;66.10;;;;;;4989468;28;20395;-48
2023/05/17 03:25:02;;;;;;;9.20;4.93;;;10.80;66.20;;;;;;4988639;28;20050;-45
2023/05/17 03:27:30;;;;;;;8.70;5.18;;;10.80;66.30;;;;;;5010295;28;20038;-46
2023/05/17 03:29:57;;;;;;;11.70;5.63;;;10.80;66.40;;;;;;4992625;28;20060;-45
2023/05/17 03:32:25;;;;;;;11.63;6.47;;;10.80;66.50;;;;;;4993147;28;20042;-49
2023/05/17 03:34:57;;;;;;;7.15;5.05;;;10.80;66.70;;;;;;5008976;28;20037;-45
2023/05/17 03:37:24;;;;;;;10.45;5.72;;;10.80;66.80;;;;;;5016321;22;20108;-49
2023/05/17 03:39:51;;;;;;;12.73;6.53;;;10.80;67.00;;;;;;5007610;28;20076;-47
2023/05/17 03:42:17;;;;;;;9.30;4.95;;;10.80;67.10;;;;;;5004764;28;20492;-48
2023/05/17 03:44:44;;;;;;;9.10;5.13;;;10.80;66.90;;;;;;5007219;28;20096;-47
2023/05/17 03:47:12;;;;;;;8.98;5.15;;;10.90;66.60;;;;;;5001753;28;20041;-47
2023/05/17 03:49:42;;;;;;;9.25;5.80;;;10.80;66.60;;;;;;5008439;28;20621;-49
2023/05/17 03:52:08;;;;;;;9.20;5.18;;;10.90;66.70;;;;;;4994995;28;20041;-48
2023/05/17 03:54:35;;;;;;;9.45;5.13;;;10.90;66.50;;;;;;4991289;28;20525;-49
2023/05/17 03:57:02;;;;;;;12.07;5.97;;;10.90;66.50;;;;;;4998258;28;20045;-48
2023/05/17 03:59:29;;;;;;;10.38;5.93;;;10.90;66.80;;;;;;5005898;28;20509;-48
2023/05/17 04:01:56;;;;;;;10.40;5.75;;;10.90;67.00;;;;;;5012880;28;20045;-48
2023/05/17 04:04:23;;;;;;;11.93;5.65;;;11.00;67.20;;;;;;5003255;28;20125;-47
2023/05/17 04:06:49;;;;;;;7.45;5.30;;;11.00;67.30;;;;;;5014376;28;20456;-47
2023/05/17 04:09:18;;;;;;;7.63;4.93;;;11.10;67.60;;;;;;4991807;28;20050;-48
2023/05/17 04:11:45;;;;;;;8.45;5.28;;;11.10;67.60;;;;;;5017272;28;20120;-49
2023/05/17 04:14:12;;;;;;;9.90;6.03;;;11.20;67.90;;;;;;5000554;28;20097;-49
2023/05/17 04:16:40;;;;;;;10.07;5.40;;;11.20;67.90;;;;;;5017125;28;20136;-49
2023/05/17 04:19:08;;;;;;;12.57;6.10;;;11.30;68.10;;;;;;5011135;28;20049;-52
2023/05/17 04:21:37;;;;;;;14.25;6.15;;;11.30;68.20;;;;;;5007328;28;20037;-50
2023/05/17 04:24:05;;;;;;;9.00;5.38;;;11.40;68.20;;;;;;5001208;28;20498;-49
2023/05/17 04:26:33;;;;;;;9.48;5.75;;;11.50;68.30;;;;;;4991531;28;20092;-48
2023/05/17 04:29:00;;;;;;;8.98;5.65;;;11.50;68.10;;;;;;4981275;28;20058;-49
2023/05/17 04:31:27;;;;;;;10.40;5.45;;;11.60;68.10;;;;;;4997056;28;20396;-50
2023/05/17 04:33:53;;;;;;;8.70;4.93;;;11.70;68.00;;;;;;5007630;28;20044;-49
2023/05/17 04:36:20;;;;;;;10.93;6.05;;;11.70;67.80;;;;;;5005956;28;20153;-49
2023/05/17 04:38:47;;;;;;;10.75;5.35;;;11.80;67.70;;;;;;5015013;28;20659;-49
2023/05/17 04:41:19;;;;;;;8.32;4.90;;;11.90;67.70;;;;;;5004779;28;20050;-50
2023/05/17 04:43:47;;;;;;;9.63;5.57;;;11.90;67.50;;;;;;4994409;28;20070;-50
2023/05/17 04:46:19;;;;;;;8.38;5.65;;;11.90;67.50;;;;;;5000626;28;20406;-49
2023/05/17 04:48:49;;;;;;;9.20;4.82;;;12.00;67.60;;;;;;5014069;28;20270;-50
2023/05/17 04:51:17;;;;;;;8.85;5.90;;;12.10;67.90;;;;;;5004363;28;20137;-49
2023/05/17 04:53:44;;;;;;;8.48;5.60;;;12.10;67.70;;;;;;5002528;28;20068;-48
2023/05/17 04:56:15;;;;;;;13.18;6.35;;;12.10;67.80;;;;;;4989468;28;20038;-50
2023/05/17 04:58:42;;;;;;;10.75;5.95;;;12.20;67.80;;;;;;5010253;28;20045;-48
2023/05/17 05:01:09;;;;;;;10.93;6.32;;;12.20;67.70;;;;;;5032709;28;20131;-49
2023/05/17 05:03:36;;;;;;;9.82;5.95;;;12.30;67.90;;;;;;5014835;28;20473;-50
2023/05/17 05:06:06;;;;;;;9.40;5.00;;;12.30;67.90;;;;;;4991478;28;20050;-48
2023/05/17 05:08:36;;;;;;;11.82;5.80;;;12.30;68.00;;;;;;5024854;28;20144;-48
2023/05/17 05:11:05;;;;;;;8.77;5.20;;;12.40;68.00;;;;;;5015155;28;20473;-50
2023/05/17 05:13:37;;;;;;;12.50;6.53;;;12.40;68.00;;;;;;5014073;28;20033;-48
2023/05/17 05:16:05;;;;;;;16.48;6.13;;;12.50;68.10;;;;;;4998031;28;20050;-49
2023/05/17 05:18:33;;;;;;;11.43;5.80;;;12.50;68.20;;;;;;5025282;28;20087;-48
2023/05/17 05:21:01;;;;;;;10.90;5.88;;;12.60;68.30;;;;;;5014742;28;20132;-53
2023/05/17 05:23:29;;;;;;;8.98;5.00;;;12.70;68.30;;;;;;5004416;28;20095;-48
2023/05/17 05:25:58;;;;;;;10.25;6.70;;;12.70;68.20;;;;;;4996736;28;20050;-50
2023/05/17 05:28:24;;;;;;;9.48;5.95;;;12.80;68.20;;;;;;5007501;28;20045;-51
2023/05/17 05:30:59;;;;;;;16.60;6.03;;;12.80;68.10;;;;;;5013249;28;20071;-49
2023/05/17 05:33:32;;;;;;;12.00;6.10;;;12.90;68.70;;;;;;4997974;28;20037;-50
2023/05/17 05:35:59;;;;;;;9.45;5.55;;;13.00;68.20;;;;;;4997574;28;20425;-49
2023/05/17 05:38:26;;;;;;;10.45;6.28;;;13.10;68.10;;;;;;5013036;28;20065;-52
2023/05/17 05:40:52;;;;;;;12.50;6.65;;;13.10;68.10;;;;;;5005195;28;20037;-51
2023/05/17 05:43:21;;;;;;;10.57;6.55;;;13.20;68.10;;;;;;5001162;28;20704;-52
2023/05/17 05:45:48;;;;;;;11.18;5.70;;;13.20;68.10;;;;;;5006484;28;20659;-48
2023/05/17 05:48:15;;;;;;;16.38;6.28;;;13.30;67.90;;;;;;5012942;28;20049;-51
2023/05/17 05:50:43;;;;;;;11.68;6.35;;;13.30;67.70;;;;;;4997862;28;20044;-49
2023/05/17 05:53:10;;;;;;;14.77;6.63;;;13.40;67.70;;;;;;5024303;28;20042;-51
2023/05/17 05:55:49;;;;;;;10.52;6.47;;;13.40;67.70;;;;;;4995774;28;20047;-49
2023/05/17 05:58:17;;;;;;;12.75;6.97;;;13.40;67.60;;;;;;5026081;28;20080;-51
2023/05/17 06:00:44;;;;;;;12.15;6.53;;;13.50;67.70;;;;;;5008266;28;20494;-51
2023/05/17 06:03:11;;;;;;;14.70;6.40;;;13.50;67.40;;;;;;5025962;28;20049;-51
2023/05/17 06:05:39;;;;;;;12.95;7.25;;;13.60;67.50;;;;;;5009806;28;20072;-49
2023/05/17 06:08:05;;;;;;;11.73;6.82;;;13.60;67.50;;;;;;5026787;28;20132;-51
2023/05/17 06:10:32;;;;;;;11.30;6.75;;;13.60;67.60;;;;;;5028138;28;20049;-49
2023/05/17 06:12:59;;;;;;;13.63;7.80;;;13.70;67.60;;;;;;5017823;28;20069;-50
2023/05/17 06:15:26;;;;;;;14.73;7.30;;;13.70;67.30;;;;;;5014873;28;20072;-50
2023/05/17 06:17:53;;;;;;;10.98;6.78;;;13.70;67.20;;;;;;5014828;28;20070;-52
2023/05/17 06:20:19;;;;;;;14.40;7.63;;;13.70;67.00;;;;;;5022456;28;20068;-51
2023/05/17 06:22:46;;;;;;;13.00;7.13;;;13.80;67.00;;;;;;5027604;28;20095;-53
2023/05/17 06:25:13;;;;;;;13.00;6.65;;;13.80;67.10;;;;;;5013506;28;20153;-51
2023/05/17 06:27:40;;;;;;;11.55;6.60;;;13.80;67.40;;;;;;5017831;28;20465;-51
2023/05/17 06:30:07;;;;;;;13.82;7.15;;;13.80;67.40;;;;;;5029806;28;20621;-48
2023/05/17 06:32:34;;;;;;;9.95;7.03;;;13.90;67.50;;;;;;5026970;28;20033;-52
2023/05/17 06:35:01;;;;;;;15.57;7.13;;;13.90;67.30;;;;;;5015834;28;20042;-52
2023/05/17 06:37:28;;;;;;;13.25;6.88;;;14.00;67.10;;;;;;5025548;28;20037;-48
2023/05/17 06:40:04;;;;;;;13.23;6.57;;;14.00;66.80;;;;;;5030274;28;20036;-50
2023/05/17 06:42:41;;;;;;;12.68;6.72;;;14.10;67.00;;;;;;5014217;28;20068;-50
2023/05/17 06:45:08;;;;;;;10.25;6.18;;;14.10;66.40;;;;;;5024532;28;20072;-49
2023/05/17 06:47:38;;;;;;;14.68;6.05;;;14.20;65.70;;;;;;5026471;28;20567;-48
2023/05/17 06:50:06;;;;;;;14.60;6.57;;;14.10;65.30;;;;;;5006086;28;20038;-49
2023/05/17 06:52:33;;;;;;;13.07;6.82;;;14.10;65.40;;;;;;5022372;28;20099;-48
2023/05/17 06:55:00;;;;;;;14.15;7.35;;;14.20;65.90;;;;;;5020787;28;20146;-48
2023/05/17 06:57:26;;;;;;;9.30;5.47;;;14.20;66.10;;;;;;5016929;28;20037;-51
2023/05/17 06:59:54;;;;;;;12.80;5.40;;;14.30;65.60;;;;;;5025648;28;20497;-49
2023/05/17 07:02:21;;;;;;;11.90;4.60;;;14.30;65.10;;;;;;5018470;28;20736;-48
2023/05/17 07:04:47;;;;;;;10.55;4.55;;;14.40;64.70;;;;;;5029263;28;20510;-52
2023/05/17 07:07:14;;;;;;;8.75;3.88;;;14.40;64.30;;;;;;5027579;28;20424;-52
2023/05/17 07:09:41;;;;;;;9.73;4.05;;;14.50;63.50;;;;;;5020126;28;20072;-49
2023/05/17 07:12:07;;;;;;;9.25;3.65;;;14.60;63.30;;;;;;5025927;28;20120;-51
2023/05/17 07:14:34;;;;;;;12.25;4.53;;;14.70;62.40;;;;;;5030266;28;20124;-48
2023/05/17 07:17:01;;;;;;;9.90;3.38;;;14.70;61.80;;;;;;5027068;28;20041;-49
2023/05/17 07:19:28;;;;;;;10.63;4.03;;;14.70;61.70;;;;;;5013841;28;20116;-50
2023/05/17 07:21:55;;;;;;;10.85;3.25;;;14.80;61.40;;;;;;5024372;28;20112;-47
2023/05/17 07:24:21;;;;;;;11.90;3.10;;;14.90;61.70;;;;;;5025205;28;20473;-53
2023/05/17 07:26:51;;;;;;;11.20;3.17;;;14.90;61.40;;;;;;5012393;28;20461;-52
2023/05/17 07:29:18;;;;;;;8.65;3.25;;;15.10;61.40;;;;;;5029631;28;20048;-51
2023/05/17 07:31:45;;;;;;;6.90;2.60;;;15.10;60.60;;;;;;5026374;28;20076;-52
2023/05/17 07:34:12;;;;;;;8.90;3.83;;;15.20;60.60;;;;;;5019110;28;20073;-52
2023/05/17 07:36:39;;;;;;;8.43;3.33;;;15.30;59.60;;;;;;5011139;28;20042;-49
2023/05/17 07:39:07;;;;;;;7.80;2.75;;;15.30;59.10;;;;;;5030375;28;20045;-48
2023/05/17 07:41:34;;;;;;;5.95;2.95;;;15.40;58.90;;;;;;5024484;28;20030;-50
2023/05/17 07:44:01;;;;;;;10.10;3.17;;;15.40;58.20;;;;;;5008037;28;20038;-49
2023/05/17 07:46:28;;;;;;;8.82;3.45;;;15.50;58.20;;;;;;5029894;28;20091;-52
2023/05/17 07:48:54;;;;;;;9.75;2.97;;;15.50;57.70;;;;;;5029325;28;20091;-48
2023/05/17 07:51:25;;;;;;;7.20;2.72;;;15.60;57.70;;;;;;5017014;28;20046;-49
2023/05/17 07:53:51;;;;;;;9.02;2.85;;;15.60;57.20;;;;;;5025674;28;20048;-50
2023/05/17 07:56:18;;;;;;;8.07;2.33;;;15.70;57.20;;;;;;5010451;28;20790;-53
2023/05/17 07:58:45;;;;;;;6.55;2.30;;;15.80;56.50;;;;;;5013181;28;20033;-50
2023/05/17 08:01:11;;;;;;;7.43;2.80;;;15.80;56.50;;;;;;5021968;28;20068;-49
2023/05/17 08:03:46;;;;;;;8.18;2.30;;;15.80;56.00;;;;;;5029663;28;20068;-50
2023/05/17 08:06:16;;;;;;;6.55;2.80;;;15.90;56.20;;;;;;5028742;28;20099;-49
2023/05/17 08:08:43;;;;;;;7.90;3.45;;;15.90;55.80;;;;;;5017312;28;20039;-48
2023/05/17 08:11:12;;;;;;;8.15;2.97;;;16.00;55.80;;;;;;5027381;28;20128;-53
2023/05/17 08:13:40;;;;;;;7.47;2.63;;;16.00;55.60;;;;;;5029767;28;20478;-51
2023/05/17 08:16:11;;;;;;;4.13;2.00;;;16.10;55.40;;;;;;5028825;28;20512;-51
2023/05/17 08:18:41;;;;;;;11.30;2.13;;;16.10;54.80;;;;;;5009470;28;20478;-49
2023/05/17 08:21:09;;;;;;;8.23;2.15;;;16.20;54.10;;;;;;5010013;28;20041;-49
2023/05/17 08:23:40;;;;;;;7.55;1.95;;;16.30;53.30;;;;;;5012168;28;20042;-53
2023/05/17 08:26:07;;;;;;;6.07;2.22;;;16.30;52.80;;;;;;5005872;28;20437;-51
2023/05/17 08:28:33;;;;;;;5.28;1.55;;;16.40;52.70;;;;;;5008747;28;20546;-48
2023/05/17 08:31:00;;;;;;;5.00;1.63;;;16.50;52.60;;;;;;5024666;28;20049;-50
2023/05/17 08:33:27;;;;;;;8.18;1.80;;;16.50;52.00;;;;;;5029568;28;20037;-49
2023/05/17 08:35:56;;;;;;;3.72;1.48;;;16.50;51.60;;;;;;5028611;28;20045;-49
2023/05/17 08:38:23;;;;;;;7.53;2.40;;;16.50;51.80;;;;;;5018340;28;20069;-51
2023/05/17 08:40:58;;;;;;;8.05;2.45;;;16.50;51.90;;;;;;5016816;28;20041;-53
2023/05/17 08:43:25;;;;;;;5.75;2.08;;;16.50;51.30;;;;;;5018033;28;20077;-49
2023/05/17 08:45:56;;;;;;;6.05;1.95;;;16.50;51.60;;;;;;5015609;28;20757;-49
2023/05/17 08:48:26;;;;;;;8.20;1.95;;;16.50;52.30;;;;;;5011949;28;20061;-51
2023/05/17 08:50:55;;;;;;;8.38;2.42;;;16.50;51.30;;;;;;5025528;28;20107;-48
2023/05/17 08:53:23;;;;;;;8.07;2.40;;;16.60;51.40;;;;;;5029299;28;20046;-50
2023/05/17 08:55:52;;;;;;;9.38;1.98;;;16.60;51.90;;;;;;5018496;28;20048;-53
2023/05/17 08:58:24;;;;;;;4.63;1.83;;;16.60;51.10;;;;;;5021244;28;20064;-53
2023/05/17 09:00:53;;;;;;;8.60;2.10;;;16.70;51.20;;;;;;5028739;28;20587;-51
2023/05/17 09:03:22;;;;;;;5.03;1.95;;;16.70;51.50;;;;;;4993859;28;20469;-50
2023/05/17 09:05:51;;;;;;;10.45;2.92;;;16.70;51.30;;;;;;5024843;28;20080;-52
2023/05/17 09:08:21;;;;;;;6.50;3.08;;;16.70;50.90;;;;;;5028960;28;20421;-50
2023/05/17 09:10:48;;;;;;;7.15;1.98;;;16.70;50.90;;;;;;5022981;28;20498;-53
2023/05/17 09:13:15;;;;;;;5.25;1.80;;;16.70;50.90;;;;;;4995573;28;20129;-49
2023/05/17 09:15:44;;;;;;;9.80;2.00;;;16.80;51.20;;;;;;5029974;28;20075;-52
2023/05/17 09:18:11;;;;;;;6.55;2.42;;;16.80;51.20;;;;;;5023250;28;20038;-52
2023/05/17 09:20:39;;;;;;;5.30;2.30;;;16.90;51.00;;;;;;5011791;28;20044;-52
2023/05/17 09:23:09;;;;;;;7.90;1.75;;;16.90;51.10;;;;;;5029238;28;20076;-52
2023/05/17 09:25:36;;;;;;;6.18;2.20;;;17.00;51.50;;;;;;5012559;28;20067;-49
2023/05/17 09:28:06;;;;;;;16.15;3.35;;;17.00;51.10;;;;;;5032968;28;20107;-53
2023/05/17 09:30:36;;;;;;;7.25;2.65;;;17.00;50.50;;;;;;5010910;28;20116;-48
2023/05/17 09:33:08;;;;;;;5.80;2.22;;;17.00;51.00;;;;;;5015526;28;20452;-48
2023/05/17 09:35:36;;;;;;;6.28;2.33;;;17.00;50.60;;;;;;5023767;28;20038;-50
2023/05/17 09:38:06;;;;;;;5.32;1.73;;;16.90;50.90;;;;;;5032166;28;20037;-50
2023/05/17 09:40:37;;;;;;;5.65;1.92;;;16.90;50.30;;;;;;5020097;28;20042;-52
2023/05/17 09:43:04;;;;;;;7.78;2.97;;;16.90;49.80;;;;;;5028960;28;20084;-49
2023/05/17 09:45:32;;;;;;;7.85;3.67;;;16.80;50.30;;;;;;5030978;28;20056;-51
2023/05/17 09:48:12;;;;;;;5.82;3.08;;;16.80;50.50;;;;;;5046613;22;20073;-50
2023/05/17 09:50:49;;;;;;;9.23;2.10;;;16.80;50.70;;;;;;5024281;28;20112;-52
2023/05/17 09:53:32;;;;;;;9.27;1.85;;;16.80;50.00;;;;;;5032837;28;20063;-49
2023/05/17 09:56:01;;;;;;;5.55;1.80;;;16.80;49.00;;;;;;5030491;28;20069;-49
2023/05/17 09:58:31;;;;;;;8.50;2.85;;;16.90;48.70;;;;;;5040459;28;20568;-50
2023/05/17 10:01:00;;;;;;;4.72;1.85;;;16.90;49.40;;;;;;5029607;28;20498;-48
2023/05/17 10:03:34;;;;;;;6.10;2.30;;;17.00;48.70;;;;;;5032555;28;20456;-49
2023/05/17 10:06:09;;;;;;;4.20;2.20;;;17.10;49.00;;;;;;5030594;28;20517;-48
2023/05/17 10:08:48;;;;;;;4.00;2.00;;;17.20;48.90;;;;;;5031989;28;20421;-47
2023/05/17 10:11:17;;;;;;;6.40;1.80;;;17.40;49.30;;;;;;5031607;28;20087;-50
2023/05/17 10:13:48;;;;;;;6.03;1.98;;;17.50;48.70;;;;;;5031373;28;20065;-50
2023/05/17 10:16:16;;;;;;;6.60;1.87;;;17.70;47.50;;;;;;5028718;28;20086;-49
2023/05/17 10:18:43;;;;;;;5.80;2.38;;;17.70;47.80;;;;;;5030628;28;20033;-52
2023/05/17 10:21:11;;;;;;;6.70;2.67;;;17.90;48.50;;;;;;5030383;28;20061;-52
2023/05/17 10:23:39;;;;;;;8.38;2.03;;;18.00;47.40;;;;;;5032932;28;20041;-53
2023/05/17 10:26:07;;;;;;;3.70;2.05;;;18.10;47.50;;;;;;5029907;28;20045;-49
2023/05/17 10:28:38;;;;;;;5.28;2.88;;;18.30;47.10;;;;;;5030881;28;20501;-51
2023/05/17 10:31:06;;;;;;;5.43;2.08;;;18.30;46.40;;;;;;5029937;28;20053;-50
2023/05/17 10:33:32;;;;;;;7.53;2.10;;;18.40;46.70;;;;;;5031484;28;20041;-49
2023/05/17 10:36:01;;;;;;;5.90;2.63;;;18.40;46.80;;;;;;5030026;28;20052;-53
2023/05/17 10:38:30;;;;;;;6.40;1.80;;;18.50;46.80;;;;;;5020062;28;20033;-51
2023/05/17 10:41:11;;;;;;;5.10;1.73;;;18.50;47.50;;;;;;5027813;28;20042;-49
2023/05/17 10:43:40;;;;;;;9.63;2.92;;;18.60;47.50;;;;;;5015330;28;20474;-53
2023/05/17 10:46:21;;;;;;;7.60;2.17;;;18.60;46.50;;;;;;5015625;28;20525;-51
2023/05/17 10:48:50;;;;;;;6.65;1.85;;;18.70;46.00;;;;;;5025452;28;20094;-49
2023/05/17 10:51:25;;;;;;;6.65;3.00;;;18.70;46.30;;;;;;5031702;28;20452;-53
2023/05/17 10:54:17;;;;;;;4.30;1.80;;;18.80;45.80;;;;;;5040665;28;20037;-50
2023/05/17 10:56:52;;;;;;;6.95;2.30;;;18.80;46.60;;;;;;5040728;28;20036;-50
2023/05/17 10:59:26;;;;;;;6.47;2.13;;;18.80;45.30;;;;;;5041572;28;20073;-53
2023/05/17 11:01:58;;;;;;;9.90;2.40;;;18.70;46.10;;;;;;5034754;28;20037;-53
2023/05/17 11:04:36;;;;;;;5.60;2.10;;;18.70;46.50;;;;;;5033358;28;20136;-53
2023/05/17 11:07:16;;;;;;;4.35;1.88;;;18.70;47.00;;;;;;5030020;28;20045;-51
2023/05/17 11:09:43;;;;;;;4.20;1.70;;;18.60;46.00;;;;;;5029252;28;20064;-52
2023/05/17 11:12:13;;;;;;;6.05;1.95;;;18.60;46.50;;;;;;5029752;28;20128;-50
2023/05/17 11:14:47;;;;;;;4.95;1.83;;;18.70;45.30;;;;;;4999705;28;20042;-52
2023/05/17 11:17:20;;;;;;;5.80;2.00;;;18.60;44.80;;;;;;5026581;28;20095;-52
2023/05/17 11:20:09;;;;;;;4.57;1.73;;;18.60;44.00;;;;;;5027271;28;20486;-52
2023/05/17 11:22:41;;;;;;;6.78;2.67;;;18.60;44.30;;;;;;5014987;28;20034;-52
2023/05/17 11:25:10;;;;;;;7.57;1.98;;;18.50;44.90;;;;;;5017419;28;20052;-52
2023/05/17 11:27:48;;;;;;;4.93;1.90;;;18.40;44.90;;;;;;5009964;28;20048;-53
2023/05/17 11:30:17;;;;;;;6.45;1.92;;;18.40;44.70;;;;;;5010623;28;20053;-52
2023/05/17 11:32:52;;;;;;;10.80;2.38;;;18.40;45.60;;;;;;5021827;28;20139;-53
2023/05/17 11:35:25;;;;;;;9.82;1.52;;;18.50;45.10;;;;;;5018314;28;20053;-54
2023/05/17 11:38:10;;;;;;;6.35;3.00;;;18.50;45.50;;;;;;5018348;28;20110;-50
2023/05/17 11:40:37;;;;;;;7.55;2.05;;;18.60;45.10;;;;;;5017337;28;20497;-49
2023/05/17 11:43:22;;;;;;;1.95;1.35;;;18.60;44.80;;;;;;4991831;28;20054;-52
2023/05/17 11:45:53;;;;;;;5.32;1.60;;;18.60;44.70;;;;;;5018272;28;20069;-49
2023/05/17 11:48:21;;;;;;;4.10;1.65;;;18.60;44.80;;;;;;5017322;28;20757;-52
2023/05/17 11:50:50;;;;;;;6.53;1.20;;;18.60;45.30;;;;;;5013681;28;20418;-53
2023/05/17 11:53:18;;;;;;;6.05;1.67;;;18.70;45.20;;;;;;5019055;28;20510;-49
2023/05/17 11:55:49;;;;;;;9.52;1.90;;;18.80;44.90;;;;;;5017972;28;20472;-50
2023/05/17 11:58:18;;;;;;;5.53;1.48;;;18.90;44.10;;;;;;5018198;28;20054;-52
2023/05/17 12:00:50;;;;;;;5.22;1.35;;;19.10;43.80;;;;;;5029664;28;20045;-53
2023/05/17 12:03:18;;;;;;;;;;;19.20;43.00;;;;;;5028495;28;20509;-52
2023/05/17 12:05:47;;;;;;;5.28;1.77;;;19.40;44.80;;;;;;5027397;28;20007;-53
2023/05/17 12:08:15;;;;;;;2.85;1.35;;;19.50;43.60;;;;;;5028550;28;20053;-54
2023/05/17 12:10:50;;;;;;;3.10;1.95;;;19.50;43.20;;;;;;5017759;28;20099;-54
2023/05/17 12:13:20;;;;;;;2.53;1.40;;;19.60;42.50;;;;;;5023860;28;20072;-53
2023/05/17 12:15:59;;;;;;;7.35;1.83;;;19.70;43.20;;;;;;5020002;28;20119;-54
2023/05/17 12:18:39;;;;;;;5.00;1.58;;;19.70;41.80;;;;;;5025013;28;20092;-54
2023/05/17 12:21:07;;;;;;;3.67;1.45;;;19.80;42.80;;;;;;5030985;28;20156;-54
2023/05/17 12:23:38;;;;;;;6.93;1.73;;;19.80;42.80;;;;;;5031574;28;20076;-54
2023/05/17 12:26:11;;;;;;;5.22;2.05;;;19.90;42.50;;;;;;5022159;28;20053;-54
2023/05/17 12:28:38;;;;;;;;;;;20.10;42.10;;;;;;5048597;28;20119;-53
2023/05/17 12:31:11;;;;;;;4.05;1.75;;;20.20;43.80;;;;;;5032498;28;19944;-54
2023/05/17 12:33:41;;;;;;;5.03;1.52;;;20.30;42.80;;;;;;5037135;28;20049;-53
2023/05/17 12:36:10;;;;;;;4.35;2.00;;;20.40;42.30;;;;;;5028897;28;20034;-52
2023/05/17 12:38:42;;;;;;;4.78;1.75;;;20.60;41.80;;;;;;5028946;28;20041;-51
2023/05/17 12:41:11;;;;;;;8.80;2.38;;;20.70;41.20;;;;;;5025843;28;20033;-51
2023/05/17 12:43:39;;;;;;;4.78;1.30;;;20.70;41.10;;;;;;5028463;28;20052;-53
2023/05/17 12:46:16;;;;;;;3.92;1.80;;;20.70;41.40;;;;;;5024428;28;20044;-53
2023/05/17 12:48:43;;;;;;;2.10;1.42;;;20.70;41.10;;;;;;5018155;28;20093;-52
2023/05/17 12:51:13;;;;;;;4.85;2.25;;;20.70;41.40;;;;;;5032014;28;20121;-53
2023/05/17 12:53:51;;;;;;;4.82;2.00;;;20.60;40.80;;;;;;5035914;28;20041;-52
2023/05/17 12:56:21;;;;;;;3.45;1.50;;;20.60;40.30;;;;;;5028167;28;20824;-53
2023/05/17 12:59:10;;;;;;;2.83;1.70;;;20.60;40.80;;;;;;5025635;28;20048;-54